KRST/RST METAR and TAF weather

Enter ICAO airport designator
Station Type Date Time Source
KRST METAR 2019/06/17 04:54 UTC NOAA

KRST 170454Z AUTO 12007KT 10SM OVC011 14/13 A2997 RMK AO2 SLP148 T01440128


Station Type Date Time Source
KRST Decoded METAR 2019/06/17 04:54 UTC NOAA

ROCHESTER INTERNATIONAL AIRPORT , MN, United States (KRST) 43-54N 092-30W 403M
Jun 17, 2019 - 12:54 AM EDT / 2019.06.17 0454 UTC
Wind: from the ESE (120 degrees) at 8 MPH (7 KT):0
Visibility: 10 mile(s):0
Sky conditions: overcast
Temperature: 57.9 F (14.4 C)
Dew Point: 55.0 F (12.8 C)
Relative Humidity: 90%
Pressure (altimeter): 29.97 in. Hg (1014 hPa)
ob: KRST 170454Z AUTO 12007KT 10SM OVC011 14/13 A2997 RMK AO2 SLP148 T01440128
cycle: 5

Station Type Date Time Source
KRST TAF 2019/06/16 18:22 UTC NOAA

TAF KRST 161720Z 1618/1718 08007KT P6SM OVC017
FM170100 10005KT P6SM SCT020
FM170900 12005KT 3SM BR SCT015
FM171300 VRB04KT P6SM SCT025

Example: see airport list